createdAt,value
2023-02-02T00:01:36.203Z,6.57
2023-02-02T00:04:04.530Z,6.43
2023-02-02T00:06:34.320Z,6.22
2023-02-02T00:09:03.820Z,6.30
2023-02-02T00:11:31.946Z,6.45
2023-02-02T00:14:00.880Z,6.00
2023-02-02T00:16:37.918Z,6.43
2023-02-02T00:19:08.291Z,5.40
2023-02-02T00:21:38.803Z,6.35
2023-02-02T00:24:08.172Z,6.40
2023-02-02T00:26:37.077Z,6.63
2023-02-02T00:29:06.152Z,6.13
2023-02-02T00:31:34.669Z,6.25
2023-02-02T00:34:02.760Z,5.85
2023-02-02T00:36:30.759Z,6.95
2023-02-02T00:39:00.203Z,6.78
2023-02-02T00:41:28.250Z,6.95
2023-02-02T00:44:13.568Z,6.78
2023-02-02T00:46:42.653Z,7.00
2023-02-02T00:49:11.098Z,7.05
2023-02-02T00:51:39.320Z,7.90
2023-02-02T00:54:08.841Z,7.63
2023-02-02T00:56:36.858Z,7.82
2023-02-02T00:59:04.921Z,8.52
2023-02-02T01:01:33.052Z,9.38
2023-02-02T01:04:01.569Z,8.57
2023-02-02T01:06:29.610Z,7.55
2023-02-02T01:08:57.605Z,8.05
2023-02-02T01:11:27.676Z,7.38
2023-02-02T01:13:55.730Z,8.10
2023-02-02T01:16:24.887Z,8.90
2023-02-02T01:18:53.295Z,7.97
2023-02-02T01:21:21.859Z,8.20
2023-02-02T01:23:50.179Z,11.30
2023-02-02T01:26:18.594Z,12.63
2023-02-02T01:28:48.360Z,8.57
2023-02-02T01:31:19.966Z,6.90
2023-02-02T01:33:49.490Z,5.55
2023-02-02T01:36:25.702Z,5.32
2023-02-02T01:38:53.757Z,6.97
2023-02-02T01:41:26.503Z,8.88
2023-02-02T01:43:58.571Z,14.40
2023-02-02T01:46:31.809Z,14.10
2023-02-02T01:49:04.939Z,15.88
2023-02-02T01:51:41.969Z,17.25
2023-02-02T01:54:14.832Z,16.50
2023-02-02T01:56:48.020Z,18.00
2023-02-02T01:59:18.999Z,18.30
2023-02-02T02:01:49.113Z,18.27
2023-02-02T02:04:18.851Z,16.02
2023-02-02T02:06:48.160Z,20.77
2023-02-02T02:09:16.690Z,21.02
2023-02-02T02:11:44.790Z,18.13
2023-02-02T02:14:32.543Z,19.08
2023-02-02T02:17:23.323Z,21.20
2023-02-02T02:20:43.228Z,18.65
2023-02-02T02:24:28.236Z,15.07
2023-02-02T02:27:15.408Z,10.27
2023-02-02T02:30:07.234Z,9.55
2023-02-02T02:32:42.933Z,9.15
2023-02-02T02:35:19.422Z,8.48
2023-02-02T02:37:51.352Z,8.68
2023-02-02T02:40:26.865Z,9.40
2023-02-02T02:43:00.111Z,9.27
2023-02-02T02:45:29.734Z,8.68
2023-02-02T02:47:59.621Z,8.52
2023-02-02T02:50:28.361Z,7.75
2023-02-02T02:53:05.308Z,9.50
2023-02-02T02:55:43.832Z,7.80
2023-02-02T02:58:16.498Z,8.18
2023-02-02T03:00:51.802Z,8.50
2023-02-02T03:03:34.824Z,8.43
2023-02-02T03:06:09.823Z,8.23
2023-02-02T03:08:41.389Z,9.68
2023-02-02T03:11:12.199Z,8.18
2023-02-02T03:13:41.553Z,7.45
2023-02-02T03:16:10.418Z,8.30
2023-02-02T03:18:40.438Z,7.15
2023-02-02T03:21:12.183Z,7.00
2023-02-02T03:23:40.514Z,8.63
2023-02-02T03:26:08.606Z,9.43
2023-02-02T03:28:37.207Z,8.50
2023-02-02T03:31:06.048Z,7.85
2023-02-02T03:33:36.485Z,9.35
2023-02-02T03:36:06.565Z,7.93
2023-02-02T03:38:35.083Z,9.25
2023-02-02T03:41:03.124Z,7.75
2023-02-02T03:43:31.168Z,7.72
2023-02-02T03:46:00.096Z,8.27
2023-02-02T03:48:28.806Z,9.55
2023-02-02T03:50:57.479Z,10.15
2023-02-02T03:53:26.890Z,9.35
2023-02-02T03:55:54.970Z,9.73
2023-02-02T03:58:23.095Z,8.73
2023-02-02T04:00:51.169Z,9.57
2023-02-02T04:03:19.204Z,9.77
2023-02-02T04:05:51.101Z,10.55
2023-02-02T04:08:19.415Z,9.55
2023-02-02T04:10:48.878Z,9.60
2023-02-02T04:13:16.916Z,7.22
2023-02-02T04:15:45.090Z,9.32
2023-02-02T04:18:13.509Z,8.75
2023-02-02T04:20:41.611Z,8.93
2023-02-02T04:23:09.583Z,9.40
2023-02-02T04:25:37.600Z,9.95
2023-02-02T04:28:07.142Z,9.52
2023-02-02T04:30:35.304Z,10.98
2023-02-02T04:33:03.400Z,9.23
2023-02-02T04:35:31.515Z,10.50
2023-02-02T04:37:59.590Z,10.45
2023-02-02T04:40:27.830Z,10.10
2023-02-02T04:42:55.827Z,8.27
2023-02-02T04:45:25.697Z,10.23
2023-02-02T04:47:54.015Z,9.50
2023-02-02T04:50:22.152Z,9.93
2023-02-02T04:52:50.193Z,9.88
2023-02-02T04:55:18.384Z,9.48
2023-02-02T04:57:46.629Z,7.60
2023-02-02T05:00:15.669Z,10.35
2023-02-02T05:02:45.369Z,10.60
2023-02-02T05:05:14.996Z,10.15
2023-02-02T05:07:43.110Z,9.63
2023-02-02T05:10:12.502Z,8.30
2023-02-02T05:12:40.574Z,9.20
2023-02-02T05:15:09.753Z,10.02
2023-02-02T05:17:37.917Z,8.95
2023-02-02T05:20:08.173Z,10.02
2023-02-02T05:22:36.301Z,9.73
2023-02-02T05:25:04.572Z,8.45
2023-02-02T05:27:32.720Z,8.15
2023-02-02T05:30:00.896Z,8.52
2023-02-02T05:32:29.819Z,9.00
2023-02-02T05:34:57.876Z,13.20
2023-02-02T05:37:27.461Z,15.90
2023-02-02T05:39:55.573Z,9.45
2023-02-02T05:42:23.601Z,9.25
2023-02-02T05:44:51.668Z,10.20
2023-02-02T05:47:19.893Z,9.65
2023-02-02T05:49:48.245Z,9.43
2023-02-02T05:52:22.688Z,7.78
2023-02-02T05:54:52.205Z,8.88
2023-02-02T05:57:20.336Z,9.43
2023-02-02T05:59:48.326Z,9.25
2023-02-02T06:02:16.356Z,9.60
2023-02-02T06:04:44.443Z,9.30
2023-02-02T06:07:13.229Z,9.75
2023-02-02T06:09:41.280Z,10.88
2023-02-02T06:12:10.732Z,10.68
2023-02-02T06:14:38.848Z,9.30
2023-02-02T06:17:07.689Z,9.35
2023-02-02T06:19:35.682Z,8.90
2023-02-02T06:22:03.730Z,8.45
2023-02-02T06:24:31.862Z,9.00
2023-02-02T06:26:59.958Z,9.75
2023-02-02T06:29:29.469Z,9.45
2023-02-02T06:31:57.566Z,9.38
2023-02-02T06:34:25.619Z,8.55
2023-02-02T06:36:53.594Z,10.50
2023-02-02T06:39:21.706Z,10.40
2023-02-02T06:41:52.039Z,11.95
2023-02-02T06:44:21.105Z,10.77
2023-02-02T06:46:50.546Z,10.55
2023-02-02T06:49:18.627Z,10.57
2023-02-02T06:51:48.192Z,10.18
2023-02-02T06:54:16.472Z,10.82
2023-02-02T06:56:44.526Z,9.73
2023-02-02T06:59:12.622Z,10.35
2023-02-02T07:01:40.740Z,9.73
2023-02-02T07:04:10.158Z,9.55
2023-02-02T07:06:39.611Z,12.90
2023-02-02T07:09:07.692Z,12.68
2023-02-02T07:11:41.969Z,11.40
2023-02-02T07:14:12.255Z,12.95
2023-02-02T07:16:40.330Z,11.95
2023-02-02T07:19:11.309Z,11.77
2023-02-02T07:21:39.586Z,12.20
2023-02-02T07:24:09.022Z,14.02
2023-02-02T07:26:37.529Z,13.88
2023-02-02T07:29:06.560Z,13.57
2023-02-02T07:31:36.575Z,13.07
2023-02-02T07:34:05.488Z,12.48
2023-02-02T07:36:34.965Z,14.07
2023-02-02T07:39:04.670Z,13.18
2023-02-02T07:41:33.284Z,13.10
2023-02-02T07:44:01.779Z,14.35
2023-02-02T07:46:30.059Z,13.10
2023-02-02T07:48:58.793Z,15.35
2023-02-02T07:51:27.546Z,15.68
2023-02-02T07:53:59.391Z,16.90
2023-02-02T07:56:28.816Z,15.93
2023-02-02T07:58:57.860Z,16.10
2023-02-02T08:01:27.016Z,15.45
2023-02-02T08:03:56.235Z,16.35
2023-02-02T08:06:26.456Z,12.55
2023-02-02T08:08:55.929Z,14.38
2023-02-02T08:11:25.922Z,12.52
2023-02-02T08:13:55.677Z,13.07
2023-02-02T08:16:24.633Z,13.75
2023-02-02T08:18:53.232Z,15.32
2023-02-02T08:21:21.346Z,13.90
2023-02-02T08:23:50.122Z,13.85
2023-02-02T08:26:22.134Z,13.98
2023-02-02T08:28:54.134Z,15.57
2023-02-02T08:31:24.563Z,14.20
2023-02-02T08:33:54.003Z,13.98
2023-02-02T08:36:24.356Z,16.35
2023-02-02T08:38:52.899Z,14.02
2023-02-02T08:41:24.503Z,12.68
2023-02-02T08:43:53.002Z,15.93
2023-02-02T08:46:22.437Z,15.88
2023-02-02T08:48:50.758Z,15.50
2023-02-02T08:51:20.386Z,15.40
2023-02-02T08:53:49.105Z,14.35
2023-02-02T08:56:19.710Z,15.20
2023-02-02T08:58:51.022Z,15.30
2023-02-02T09:01:21.256Z,13.70
2023-02-02T09:03:49.638Z,16.67
2023-02-02T09:06:20.696Z,17.10
2023-02-02T09:08:49.262Z,16.85
2023-02-02T09:11:19.004Z,13.70
2023-02-02T09:13:50.125Z,13.30
2023-02-02T09:16:20.101Z,15.93
2023-02-02T09:18:48.181Z,15.02
2023-02-02T09:21:17.898Z,15.88
2023-02-02T09:23:47.720Z,16.65
2023-02-02T09:26:18.012Z,14.00
2023-02-02T09:28:49.949Z,14.68
2023-02-02T09:31:18.754Z,13.80
2023-02-02T09:33:47.017Z,13.98
2023-02-02T09:36:16.422Z,13.73
2023-02-02T09:38:44.972Z,12.90
2023-02-02T09:41:43.592Z,13.20
2023-02-02T09:44:20.618Z,12.68
2023-02-02T09:46:58.198Z,11.07
2023-02-02T09:49:32.673Z,10.73
2023-02-02T09:52:05.119Z,10.55
2023-02-02T09:54:39.579Z,9.27
2023-02-02T09:57:14.899Z,10.13
2023-02-02T09:59:45.438Z,12.35
2023-02-02T10:02:19.636Z,12.80
2023-02-02T10:04:52.293Z,10.50
2023-02-02T10:07:22.531Z,12.25
2023-02-02T10:09:57.251Z,12.80
2023-02-02T10:12:34.171Z,17.13
2023-02-02T10:15:13.469Z,15.25
2023-02-02T10:17:47.832Z,14.35
2023-02-02T10:20:38.197Z,14.38
2023-02-02T10:23:13.913Z,18.13
2023-02-02T10:25:50.486Z,17.13
2023-02-02T10:28:44.227Z,14.90
2023-02-02T10:31:23.515Z,15.65
2023-02-02T10:34:03.443Z,17.58
2023-02-02T10:36:42.840Z,17.13
2023-02-02T10:39:20.938Z,14.50
2023-02-02T10:42:00.316Z,14.93
2023-02-02T10:44:38.368Z,15.25
2023-02-02T10:47:14.025Z,15.82
2023-02-02T10:49:42.560Z,16.23
2023-02-02T10:52:17.726Z,12.57
2023-02-02T10:54:57.761Z,13.90
2023-02-02T10:57:35.502Z,15.23
2023-02-02T11:00:11.504Z,13.95
2023-02-02T11:02:40.941Z,14.05
2023-02-02T11:05:35.443Z,16.20
2023-02-02T11:08:03.682Z,13.50
2023-02-02T11:10:33.875Z,11.93
2023-02-02T11:13:03.707Z,12.32
2023-02-02T11:15:32.459Z,14.38
2023-02-02T11:18:15.893Z,20.23
2023-02-02T11:20:46.582Z,13.98
2023-02-02T11:23:20.207Z,13.02
2023-02-02T11:25:58.953Z,13.13
2023-02-02T11:28:30.292Z,12.20
2023-02-02T11:30:59.216Z,12.20
2023-02-02T11:33:30.701Z,14.02
2023-02-02T11:36:00.731Z,13.95
2023-02-02T11:38:29.563Z,12.23
2023-02-02T11:41:02.363Z,10.55
2023-02-02T11:43:32.642Z,11.13
2023-02-02T11:46:04.325Z,9.98
2023-02-02T11:48:37.110Z,11.52
2023-02-02T11:51:07.021Z,10.98
2023-02-02T11:53:37.833Z,10.70
2023-02-02T11:56:10.669Z,10.45
2023-02-02T11:58:46.156Z,8.95
2023-02-02T12:01:33.130Z,11.35
2023-02-02T12:04:04.528Z,9.07
2023-02-02T12:06:36.777Z,9.75
2023-02-02T12:09:15.432Z,9.40
2023-02-02T12:11:55.284Z,10.55
2023-02-02T12:14:35.547Z,8.85
2023-02-02T12:17:16.243Z,9.20
2023-02-02T12:20:03.917Z,11.68
2023-02-02T12:22:50.552Z,10.88
2023-02-02T12:25:38.877Z,11.93
2023-02-02T12:28:19.508Z,10.57
2023-02-02T12:30:57.653Z,9.15
2023-02-02T12:33:34.602Z,11.57
2023-02-02T12:36:24.367Z,13.85
2023-02-02T12:39:07.914Z,12.65
2023-02-02T12:41:48.880Z,11.32
2023-02-02T12:44:24.689Z,12.10
2023-02-02T12:47:09.649Z,12.77
2023-02-02T12:50:01.173Z,13.70
2023-02-02T12:52:49.815Z,11.65
2023-02-02T12:55:26.443Z,11.05
2023-02-02T12:58:03.268Z,10.05
2023-02-02T13:00:54.526Z,9.50
2023-02-02T13:03:36.276Z,12.88
2023-02-02T13:06:24.531Z,12.52
2023-02-02T13:09:01.902Z,11.10
2023-02-02T13:11:39.940Z,9.35
2023-02-02T13:14:13.926Z,9.23
2023-02-02T13:16:48.528Z,8.40
2023-02-02T13:19:26.659Z,9.10
2023-02-02T13:21:59.249Z,9.65
2023-02-02T13:24:38.702Z,9.35
2023-02-02T13:27:11.953Z,9.38
2023-02-02T13:29:47.986Z,7.28
2023-02-02T13:32:24.429Z,9.15
2023-02-02T13:34:56.619Z,9.75
2023-02-02T13:37:30.392Z,8.57
2023-02-02T13:40:02.813Z,9.95
2023-02-02T13:42:42.030Z,9.65
2023-02-02T13:45:34.238Z,9.15
2023-02-02T13:48:21.228Z,9.27
2023-02-02T13:51:07.593Z,10.43
2023-02-02T13:53:50.823Z,13.13
2023-02-02T13:56:39.767Z,10.93
2023-02-02T13:59:26.018Z,12.57
2023-02-02T14:01:55.005Z,12.50
2023-02-02T14:04:26.001Z,15.20
2023-02-02T14:06:58.224Z,13.82
2023-02-02T14:09:29.241Z,16.25
2023-02-02T14:12:01.944Z,16.15
2023-02-02T14:14:35.255Z,16.80
2023-02-02T14:17:05.850Z,15.27
2023-02-02T14:19:55.557Z,13.45
2023-02-02T14:22:44.601Z,13.65
2023-02-02T14:25:47.505Z,14.30
2023-02-02T14:28:50.814Z,16.10
2023-02-02T14:31:29.704Z,13.77
2023-02-02T14:34:27.852Z,17.30
2023-02-02T14:37:11.165Z,13.82
2023-02-02T14:39:50.541Z,14.75
2023-02-02T14:42:48.475Z,20.35
2023-02-02T14:45:27.165Z,17.42
2023-02-02T14:47:58.506Z,15.75
2023-02-02T14:50:37.052Z,16.45
2023-02-02T14:53:08.382Z,23.85
2023-02-02T14:56:00.553Z,23.38
2023-02-02T14:58:35.136Z,17.83
2023-02-02T15:01:11.068Z,17.00
2023-02-02T15:03:49.463Z,17.73
2023-02-02T15:06:30.379Z,17.65
2023-02-02T15:09:36.588Z,18.08
2023-02-02T15:12:35.144Z,16.60
2023-02-02T15:15:18.389Z,18.15
2023-02-02T15:17:55.994Z,17.95
2023-02-02T15:20:30.908Z,15.93
2023-02-02T15:23:03.501Z,15.40
2023-02-02T15:25:36.775Z,17.05
2023-02-02T15:28:13.287Z,15.82
2023-02-02T15:30:45.990Z,16.10
2023-02-02T15:33:25.484Z,18.55
2023-02-02T15:35:55.100Z,16.48
2023-02-02T15:38:25.205Z,17.25
2023-02-02T15:40:56.770Z,18.70
2023-02-02T15:43:28.082Z,20.48
2023-02-02T15:46:02.483Z,16.63
2023-02-02T15:48:34.653Z,16.75
2023-02-02T15:51:06.432Z,18.10
2023-02-02T15:53:46.567Z,15.02
2023-02-02T15:56:27.463Z,18.58
2023-02-02T15:58:57.520Z,17.00
2023-02-02T16:01:28.090Z,15.95
2023-02-02T16:04:08.240Z,18.13
2023-02-02T16:06:36.892Z,16.85
2023-02-02T16:09:05.558Z,20.02
2023-02-02T16:11:34.265Z,17.63
2023-02-02T16:14:04.136Z,18.05
2023-02-02T16:16:34.698Z,17.08
2023-02-02T16:19:07.465Z,16.85
2023-02-02T16:21:38.647Z,16.08
2023-02-02T16:24:13.259Z,16.90
2023-02-02T16:26:42.351Z,16.67
2023-02-02T16:29:17.143Z,18.48
2023-02-02T16:31:46.609Z,18.35
2023-02-02T16:34:40.141Z,16.83
2023-02-02T16:37:13.817Z,16.77
2023-02-02T16:39:42.177Z,18.90
2023-02-02T16:42:11.625Z,16.63
2023-02-02T16:44:42.948Z,16.55
2023-02-02T16:47:37.706Z,18.17
2023-02-02T16:50:28.191Z,20.65
2023-02-02T16:53:00.404Z,18.90
2023-02-02T16:55:43.652Z,21.08
2023-02-02T16:58:20.881Z,21.27
2023-02-02T17:01:12.311Z,24.02
2023-02-02T17:03:48.497Z,21.50
2023-02-02T17:06:18.227Z,21.80
2023-02-02T17:08:46.298Z,24.70
2023-02-02T17:11:24.758Z,23.20
2023-02-02T17:13:53.625Z,23.73
2023-02-02T17:16:23.166Z,21.85
2023-02-02T17:18:52.535Z,20.08
2023-02-02T17:21:25.426Z,22.10
2023-02-02T17:23:54.617Z,19.17
2023-02-02T17:26:22.768Z,19.10
2023-02-02T17:28:55.880Z,22.67
2023-02-02T17:31:24.072Z,21.77
2023-02-02T17:33:52.147Z,21.10
2023-02-02T17:36:21.599Z,17.98
2023-02-02T17:38:49.684Z,21.02
2023-02-02T17:41:17.763Z,18.70
2023-02-02T17:43:45.958Z,17.35
2023-02-02T17:46:14.078Z,18.20
2023-02-02T17:48:42.675Z,17.13
2023-02-02T17:51:15.958Z,16.98
2023-02-02T17:53:46.131Z,18.45
2023-02-02T17:56:14.185Z,22.17
2023-02-02T17:58:42.306Z,19.55
2023-02-02T18:01:11.904Z,19.40
2023-02-02T18:03:41.566Z,18.58
2023-02-02T18:06:11.571Z,21.63
2023-02-02T18:08:40.773Z,19.88
2023-02-02T18:11:13.578Z,19.50
2023-02-02T18:13:43.513Z,23.65
2023-02-02T18:16:12.659Z,20.08
2023-02-02T18:18:40.762Z,20.52
2023-02-02T18:21:10.686Z,20.13
2023-02-02T18:23:39.279Z,17.35
2023-02-02T18:26:13.367Z,18.75
2023-02-02T18:28:41.539Z,20.10
2023-02-02T18:31:11.320Z,17.83
2023-02-02T18:33:41.523Z,17.30
2023-02-02T18:36:12.421Z,19.65
2023-02-02T18:38:41.613Z,16.85
2023-02-02T18:41:09.789Z,17.38
2023-02-02T18:43:39.167Z,17.00
2023-02-02T18:46:10.307Z,19.25
2023-02-02T18:48:38.606Z,20.45
2023-02-02T18:51:07.451Z,19.88
2023-02-02T18:53:36.184Z,19.40
2023-02-02T18:56:06.385Z,21.48
2023-02-02T18:58:34.924Z,25.33
2023-02-02T19:01:09.496Z,25.58
2023-02-02T19:03:38.034Z,21.23
2023-02-02T19:06:25.045Z,22.70
2023-02-02T19:08:53.190Z,20.60
2023-02-02T19:11:22.750Z,25.67
2023-02-02T19:13:50.946Z,30.00
2023-02-02T19:16:25.714Z,28.38
2023-02-02T19:18:57.346Z,25.92
2023-02-02T19:21:26.521Z,26.58
2023-02-02T19:23:54.586Z,23.90
2023-02-02T19:26:24.704Z,27.38
2023-02-02T19:28:53.251Z,31.52
2023-02-02T19:31:22.762Z,32.33
2023-02-02T19:33:51.950Z,28.98
2023-02-02T19:36:22.498Z,32.63
2023-02-02T19:38:53.414Z,31.95
2023-02-02T19:41:24.593Z,31.00
2023-02-02T19:43:58.359Z,29.55
2023-02-02T19:46:28.929Z,28.58
2023-02-02T19:49:08.401Z,35.63
2023-02-02T19:51:42.904Z,36.65
2023-02-02T19:54:27.920Z,36.90
2023-02-02T19:56:58.461Z,32.95
2023-02-02T19:59:30.871Z,34.53
2023-02-02T20:02:20.027Z,34.45
2023-02-02T20:04:49.173Z,35.88
2023-02-02T20:07:17.212Z,35.22
2023-02-02T20:09:45.399Z,31.92
2023-02-02T20:12:22.282Z,32.60
2023-02-02T20:14:50.318Z,35.95
2023-02-02T20:17:28.958Z,31.58
2023-02-02T20:19:57.016Z,35.78
2023-02-02T20:22:29.342Z,30.75
2023-02-02T20:24:58.674Z,32.35
2023-02-02T20:27:29.054Z,28.67
2023-02-02T20:30:02.096Z,29.00
2023-02-02T20:32:40.769Z,23.63
2023-02-02T20:35:23.922Z,27.77
2023-02-02T20:37:52.222Z,25.05
2023-02-02T20:40:25.979Z,26.30
2023-02-02T20:42:54.540Z,26.15
2023-02-02T20:45:23.426Z,24.13
2023-02-02T20:47:53.161Z,27.52
2023-02-02T20:50:23.071Z,22.85
2023-02-02T20:52:53.538Z,24.58
2023-02-02T20:55:21.727Z,20.10
2023-02-02T20:57:49.786Z,21.98
2023-02-02T21:00:21.373Z,22.77
2023-02-02T21:02:49.537Z,22.20
2023-02-02T21:05:19.418Z,20.42
2023-02-02T21:07:47.885Z,21.42
2023-02-02T21:10:16.219Z,22.70
2023-02-02T21:12:44.243Z,22.00
2023-02-02T21:15:12.494Z,25.40
2023-02-02T21:17:41.354Z,21.60
2023-02-02T21:20:11.746Z,20.90
2023-02-02T21:22:41.320Z,18.40
2023-02-02T21:25:10.051Z,18.05
2023-02-02T21:27:41.174Z,18.73
2023-02-02T21:30:10.931Z,19.85
2023-02-02T21:32:39.040Z,19.85
2023-02-02T21:35:07.543Z,17.05
2023-02-02T21:37:37.688Z,17.60
2023-02-02T21:40:14.648Z,18.85
2023-02-02T21:42:48.268Z,18.73
2023-02-02T21:45:35.170Z,18.70
2023-02-02T21:48:07.256Z,18.80
2023-02-02T21:50:36.932Z,19.02
2023-02-02T21:53:19.857Z,18.70
2023-02-02T21:55:53.208Z,18.15
2023-02-02T21:58:24.977Z,17.80
2023-02-02T22:00:54.081Z,17.42
2023-02-02T22:03:35.462Z,17.67
2023-02-02T22:06:19.709Z,19.60
2023-02-02T22:08:48.591Z,16.98
2023-02-02T22:11:25.260Z,19.80
2023-02-02T22:13:55.644Z,18.55
2023-02-02T22:16:23.876Z,17.70
2023-02-02T22:18:52.007Z,18.63
2023-02-02T22:21:21.172Z,16.75
2023-02-02T22:23:49.380Z,18.40
2023-02-02T22:26:30.205Z,18.08
2023-02-02T22:28:58.353Z,16.35
2023-02-02T22:31:26.641Z,15.82
2023-02-02T22:33:54.703Z,16.30
2023-02-02T22:36:22.752Z,14.73
2023-02-02T22:38:50.964Z,15.48
2023-02-02T22:41:19.235Z,15.75
2023-02-02T22:43:49.095Z,15.52
2023-02-02T22:46:17.120Z,14.07
2023-02-02T22:48:45.248Z,12.48
2023-02-02T22:51:13.324Z,13.55
2023-02-02T22:53:41.444Z,12.52
2023-02-02T22:56:09.644Z,11.90
2023-02-02T22:58:37.657Z,12.25
2023-02-02T23:01:07.211Z,11.75
2023-02-02T23:03:35.352Z,12.02
2023-02-02T23:06:03.353Z,10.90
2023-02-02T23:08:31.387Z,11.13
2023-02-02T23:10:59.587Z,11.25
2023-02-02T23:13:27.718Z,10.35
2023-02-02T23:15:56.737Z,10.15
2023-02-02T23:18:26.210Z,11.75
2023-02-02T23:20:54.220Z,10.63
2023-02-02T23:23:23.073Z,10.40
2023-02-02T23:25:51.165Z,9.20
2023-02-02T23:28:19.379Z,9.30
2023-02-02T23:30:47.529Z,9.52
2023-02-02T23:33:15.685Z,9.15
2023-02-02T23:35:45.125Z,9.88
2023-02-02T23:38:13.491Z,10.35
2023-02-02T23:40:41.562Z,8.70
2023-02-02T23:43:09.600Z,9.35
2023-02-02T23:45:38.882Z,10.45
2023-02-02T23:48:07.685Z,9.57
2023-02-02T23:50:38.480Z,10.30
2023-02-02T23:53:08.735Z,10.20
2023-02-02T23:55:37.127Z,9.25
2023-02-02T23:58:05.992Z,10.73
